sim
Sign-in with your pilot id or email,
or register
Callsign
Passwort

Schedule Details

Flight Number: DLH1987 (2)
Departure: Cologne Bonn Airport (EDDK) at 12:20
Arrival: Munich Airport (EDDM) at 13:25
Route: Lufthansa Passenger Schedule. Enter filed route here before submitting Pirep.

Weather Information
Getting current METAR information for EDDK 241920Z 15010KT 9999 FEW040 16/10 Q0999 NOSIG
Getting current METAR information for EDDM 241920Z 04005KT CAVOK 16/13 Q1004 NOSIG

Schedule Frequency

Route Map